createdAt,value
2018-01-03T00:01:29.926Z,4.27
2018-01-03T00:03:58.345Z,4.27
2018-01-03T00:06:26.489Z,3.70
2018-01-03T00:08:55.536Z,4.40
2018-01-03T00:11:23.890Z,3.80
2018-01-03T00:13:52.096Z,3.93
2018-01-03T00:16:20.434Z,4.30
2018-01-03T00:18:48.662Z,4.33
2018-01-03T00:21:16.815Z,4.40
2018-01-03T00:23:45.272Z,3.60
2018-01-03T00:26:13.664Z,3.60
2018-01-03T00:28:41.992Z,3.83
2018-01-03T00:31:10.116Z,3.03
2018-01-03T00:33:38.319Z,3.47
2018-01-03T00:36:06.581Z,2.83
2018-01-03T00:38:34.785Z,3.50
2018-01-03T00:41:03.201Z,3.00
2018-01-03T00:43:32.434Z,2.80
2018-01-03T00:46:01.375Z,3.23
2018-01-03T00:48:30.604Z,3.20
2018-01-03T00:50:58.766Z,3.00
2018-01-03T00:53:26.941Z,2.77
2018-01-03T00:55:55.092Z,3.40
2018-01-03T00:58:23.228Z,3.67
2018-01-03T01:00:51.373Z,2.50
2018-01-03T01:03:19.960Z,2.60
2018-01-03T01:05:48.130Z,3.20
2018-01-03T01:08:16.839Z,2.60
2018-01-03T01:10:44.956Z,2.43
2018-01-03T01:13:13.187Z,2.30
2018-01-03T01:15:41.362Z,2.40
2018-01-03T01:18:09.681Z,2.40
2018-01-03T01:20:38.080Z,2.03
2018-01-03T01:23:06.602Z,2.37
2018-01-03T01:25:34.918Z,2.10
2018-01-03T01:28:03.092Z,1.80
2018-01-03T01:30:31.212Z,2.50
2018-01-03T01:33:00.121Z,2.03
2018-01-03T01:35:28.280Z,2.23
2018-01-03T01:37:56.409Z,2.03
2018-01-03T01:40:24.976Z,1.80
2018-01-03T01:42:53.790Z,1.73
2018-01-03T01:45:22.145Z,1.70
2018-01-03T01:47:51.092Z,1.67
2018-01-03T01:50:19.281Z,1.90
2018-01-03T01:52:47.448Z,1.23
2018-01-03T01:55:16.268Z,1.23
2018-01-03T01:57:44.768Z,2.00
2018-01-03T02:00:13.161Z,1.90
2018-01-03T02:02:42.044Z,1.83
2018-01-03T02:05:10.222Z,1.60
2018-01-03T02:07:38.581Z,1.87
2018-01-03T02:10:07.121Z,1.60
2018-01-03T02:12:35.725Z,1.97
2018-01-03T02:15:04.590Z,1.87
2018-01-03T02:17:32.748Z,1.50
2018-01-03T02:20:01.805Z,2.13
2018-01-03T02:22:29.996Z,1.80
2018-01-03T02:24:58.394Z,1.80
2018-01-03T02:27:27.860Z,2.40
2018-01-03T02:29:56.364Z,1.60
2018-01-03T02:32:25.317Z,1.83
2018-01-03T02:34:53.835Z,2.07
2018-01-03T02:37:21.973Z,2.30
2018-01-03T02:39:50.545Z,2.03
2018-01-03T02:42:18.708Z,2.27
2018-01-03T02:44:47.009Z,2.30
2018-01-03T02:47:15.792Z,2.57
2018-01-03T02:49:43.973Z,1.83
2018-01-03T02:52:12.289Z,2.70
2018-01-03T02:54:40.944Z,2.30
2018-01-03T02:57:09.102Z,2.30
2018-01-03T02:59:37.286Z,1.60
2018-01-03T03:02:05.460Z,2.00
2018-01-03T03:04:33.609Z,1.90
2018-01-03T03:07:01.765Z,2.83
2018-01-03T03:09:30.628Z,2.20
2018-01-03T03:11:58.751Z,2.10
2018-01-03T03:14:26.865Z,1.90
2018-01-03T03:16:56.677Z,1.87
2018-01-03T03:19:27.264Z,2.97
2018-01-03T03:21:55.497Z,2.30
2018-01-03T03:24:24.602Z,1.70
2018-01-03T03:26:53.092Z,2.00
2018-01-03T03:29:21.992Z,1.70
2018-01-03T03:31:51.116Z,1.77
2018-01-03T03:34:19.453Z,1.37
2018-01-03T03:36:48.366Z,1.53
2018-01-03T03:39:16.501Z,1.33
2018-01-03T03:41:45.730Z,1.33
2018-01-03T03:44:14.761Z,1.40
2018-01-03T03:46:42.883Z,1.27
2018-01-03T03:49:11.052Z,1.70
2018-01-03T03:51:39.944Z,1.67
2018-01-03T03:54:08.296Z,1.30
2018-01-03T03:56:36.692Z,1.10
2018-01-03T03:59:05.860Z,1.63
2018-01-03T04:01:34.903Z,1.27
2018-01-03T04:04:03.061Z,1.40
2018-01-03T04:06:31.200Z,1.33
2018-01-03T04:09:00.022Z,1.40
2018-01-03T04:11:28.438Z,0.77
2018-01-03T04:13:56.738Z,1.30
2018-01-03T04:16:24.884Z,1.03
2018-01-03T04:18:52.992Z,1.10
2018-01-03T04:21:21.994Z,1.00
2018-01-03T04:23:51.327Z,1.10
2018-01-03T04:26:20.224Z,0.90
2018-01-03T04:28:49.111Z,0.80
2018-01-03T04:31:17.873Z,1.27
2018-01-03T04:33:46.003Z,0.80
2018-01-03T04:36:14.388Z,0.70
2018-01-03T04:38:42.505Z,0.60
2018-01-03T04:41:10.814Z,0.93
2018-01-03T04:43:38.945Z,0.70
2018-01-03T04:46:07.821Z,0.70
2018-01-03T04:48:36.205Z,0.53
2018-01-03T04:51:04.317Z,0.60
2018-01-03T04:53:32.754Z,0.60
2018-01-03T04:56:00.888Z,0.53
2018-01-03T04:58:29.248Z,0.63
2018-01-03T05:00:58.058Z,0.53
2018-01-03T05:03:26.865Z,0.67
2018-01-03T05:05:54.960Z,0.63
2018-01-03T05:08:23.335Z,0.50
2018-01-03T05:10:51.488Z,0.50
2018-01-03T05:13:19.624Z,0.60
2018-01-03T05:15:49.962Z,0.80
2018-01-03T05:18:18.853Z,0.50
2018-01-03T05:20:47.741Z,0.50
2018-01-03T05:23:17.061Z,0.50
2018-01-03T05:25:45.189Z,0.50
2018-01-03T05:28:13.360Z,0.50
2018-01-03T05:30:41.708Z,0.60
2018-01-03T05:33:09.896Z,0.50
2018-01-03T05:35:38.041Z,0.50
2018-01-03T05:38:06.564Z,0.50
2018-01-03T05:40:34.732Z,0.60
2018-01-03T05:43:02.999Z,0.40
2018-01-03T05:45:31.379Z,0.70
2018-01-03T05:47:59.513Z,0.30
2018-01-03T05:50:27.660Z,0.30
2018-01-03T05:52:55.800Z,0.40
2018-01-03T05:55:24.192Z,0.40
2018-01-03T05:57:52.464Z,0.77
2018-01-03T06:00:20.836Z,0.33
2018-01-03T06:02:49.484Z,0.60
2018-01-03T06:05:18.336Z,0.43
2018-01-03T06:07:46.735Z,0.40
2018-01-03T06:10:15.886Z,0.40
2018-01-03T06:12:44.095Z,0.30
2018-01-03T06:15:12.316Z,0.40
2018-01-03T06:17:40.465Z,0.30
2018-01-03T06:20:08.681Z,0.60
2018-01-03T06:22:36.825Z,0.40
2018-01-03T06:25:05.024Z,0.40
2018-01-03T06:27:33.521Z,0.50
2018-01-03T06:30:02.689Z,0.50
2018-01-03T06:32:31.080Z,0.50
2018-01-03T06:35:00.040Z,0.50
2018-01-03T06:37:28.921Z,0.70
2018-01-03T06:39:57.940Z,0.60
2018-01-03T06:42:26.190Z,0.70
2018-01-03T06:44:57.452Z,0.60
2018-01-03T06:47:25.771Z,0.50
2018-01-03T06:49:54.165Z,0.50
2018-01-03T06:52:22.361Z,0.70
2018-01-03T06:54:50.681Z,0.87
2018-01-03T06:57:18.940Z,0.67
2018-01-03T06:59:47.285Z,0.73
2018-01-03T07:02:15.598Z,0.80
2018-01-03T07:04:44.601Z,0.80
2018-01-03T07:07:13.192Z,0.80
2018-01-03T07:09:41.910Z,1.07
2018-01-03T07:12:10.093Z,1.17
2018-01-03T07:14:38.321Z,1.07
2018-01-03T07:17:06.656Z,1.37
2018-01-03T07:19:36.254Z,1.70
2018-01-03T07:22:04.398Z,1.47
2018-01-03T07:24:32.512Z,1.13
2018-01-03T07:27:00.656Z,1.70
2018-01-03T07:29:28.777Z,1.17
2018-01-03T07:31:58.066Z,1.90
2018-01-03T07:34:26.194Z,1.70
2018-01-03T07:36:54.392Z,1.90
2018-01-03T07:39:22.540Z,1.53
2018-01-03T07:41:50.680Z,1.70
2018-01-03T07:44:18.809Z,1.60
2018-01-03T07:46:47.693Z,1.77
2018-01-03T07:49:15.815Z,1.13
2018-01-03T07:51:44.673Z,1.60
2018-01-03T07:54:12.789Z,1.73
2018-01-03T07:56:41.705Z,2.63
2018-01-03T07:59:10.101Z,2.83
2018-01-03T08:01:38.273Z,1.50
2018-01-03T08:04:06.413Z,2.43
2018-01-03T08:06:35.292Z,1.40
2018-01-03T08:09:05.409Z,2.10
2018-01-03T08:11:34.302Z,1.33
2018-01-03T08:14:03.205Z,2.00
2018-01-03T08:16:31.348Z,3.63
2018-01-03T08:19:01.016Z,2.07
2018-01-03T08:21:29.473Z,2.30
2018-01-03T08:23:57.621Z,1.80
2018-01-03T08:26:27.045Z,2.00
2018-01-03T08:28:55.177Z,1.60
2018-01-03T08:31:23.526Z,2.83
2018-01-03T08:33:51.812Z,1.93
2018-01-03T08:36:19.976Z,1.80
2018-01-03T08:38:48.248Z,1.90
2018-01-03T08:41:16.829Z,1.70
2018-01-03T08:43:45.008Z,3.00
2018-01-03T08:46:13.311Z,2.17
2018-01-03T08:48:41.441Z,1.87
2018-01-03T08:51:09.581Z,2.20
2018-01-03T08:53:37.817Z,1.60
2018-01-03T08:56:05.980Z,1.63
2018-01-03T08:58:34.436Z,2.13
2018-01-03T09:01:03.453Z,2.10
2018-01-03T09:03:31.597Z,1.50
2018-01-03T09:05:59.736Z,1.37
2018-01-03T09:08:28.038Z,1.77
2018-01-03T09:10:56.408Z,0.90
2018-01-03T09:13:24.600Z,1.37
2018-01-03T09:15:52.742Z,1.43
2018-01-03T09:18:20.869Z,2.20
2018-01-03T09:20:48.984Z,1.40
2018-01-03T09:23:17.072Z,1.50
2018-01-03T09:25:45.225Z,2.23
2018-01-03T09:28:13.472Z,1.47
2018-01-03T09:30:41.621Z,1.80
2018-01-03T09:33:10.696Z,1.90
2018-01-03T09:35:39.273Z,2.13
2018-01-03T09:38:07.418Z,2.30
2018-01-03T09:40:35.600Z,1.80
2018-01-03T09:43:04.063Z,1.90
2018-01-03T09:45:32.208Z,2.30
2018-01-03T09:48:01.096Z,2.17
2018-01-03T09:50:29.985Z,1.87
2018-01-03T09:52:58.840Z,2.07
2018-01-03T09:55:27.200Z,2.73
2018-01-03T09:57:55.761Z,2.17
2018-01-03T10:00:23.904Z,1.77
2018-01-03T10:02:52.973Z,2.10
2018-01-03T10:05:21.145Z,1.90
2018-01-03T10:07:49.366Z,1.40
2018-01-03T10:10:17.755Z,1.83
2018-01-03T10:12:45.904Z,1.50
2018-01-03T10:15:15.065Z,1.90
2018-01-03T10:17:43.219Z,2.33
2018-01-03T10:20:12.114Z,1.73
2018-01-03T10:22:40.265Z,2.00
2018-01-03T10:25:08.444Z,1.60
2018-01-03T10:27:36.646Z,1.73
2018-01-03T10:30:05.229Z,2.53
2018-01-03T10:32:34.092Z,2.47
2018-01-03T10:35:02.468Z,1.70
2018-01-03T10:37:31.668Z,3.93
2018-01-03T10:40:00.922Z,2.33
2018-01-03T10:42:30.708Z,2.00
2018-01-03T10:44:59.441Z,2.53
2018-01-03T10:47:27.568Z,2.77
2018-01-03T10:49:56.979Z,2.63
2018-01-03T10:52:25.192Z,3.73
2018-01-03T10:54:54.380Z,2.70
2018-01-03T10:57:23.743Z,2.40
2018-01-03T10:59:52.497Z,2.37
2018-01-03T11:02:21.370Z,2.40
2018-01-03T11:04:50.015Z,1.97
2018-01-03T11:07:18.265Z,2.90
2018-01-03T11:09:46.704Z,1.93
2018-01-03T11:12:14.881Z,1.67
2018-01-03T11:14:43.005Z,2.00
2018-01-03T11:17:11.772Z,1.50
2018-01-03T11:19:39.904Z,1.73
2018-01-03T11:22:08.309Z,2.53
2018-01-03T11:24:36.481Z,2.37
2018-01-03T11:27:06.356Z,2.50
2018-01-03T11:29:34.513Z,1.93
2018-01-03T11:32:02.955Z,2.00
2018-01-03T11:34:31.933Z,2.30
2018-01-03T11:37:00.410Z,2.60
2018-01-03T11:39:28.648Z,2.10
2018-01-03T11:41:57.132Z,2.70
2018-01-03T11:44:25.818Z,3.23
2018-01-03T11:46:54.601Z,2.20
2018-01-03T11:49:22.745Z,3.20
2018-01-03T11:51:51.712Z,2.40
2018-01-03T11:54:19.912Z,1.87
2018-01-03T11:56:49.352Z,2.73
2018-01-03T11:59:16.021Z,3.30
2018-01-03T12:01:44.521Z,1.90
2018-01-03T12:04:13.784Z,2.37
2018-01-03T12:06:42.527Z,2.17
2018-01-03T12:09:11.628Z,3.80
2018-01-03T12:11:39.769Z,1.67
2018-01-03T12:14:07.852Z,3.00
2018-01-03T12:16:36.713Z,1.63
2018-01-03T12:19:05.187Z,1.77
2018-01-03T12:21:33.326Z,2.10
2018-01-03T12:24:01.439Z,2.57
2018-01-03T12:26:29.574Z,1.40
2018-01-03T12:28:57.908Z,1.67
2018-01-03T12:31:26.652Z,1.90
2018-01-03T12:33:54.948Z,1.80
2018-01-03T12:36:23.120Z,2.37
2018-01-03T12:38:51.350Z,1.80
2018-01-03T12:41:20.822Z,1.80
2018-01-03T12:43:49.056Z,1.90
2018-01-03T12:46:17.401Z,1.90
2018-01-03T12:48:46.002Z,1.87
2018-01-03T12:51:15.565Z,1.80
2018-01-03T12:53:43.960Z,2.43
2018-01-03T12:56:12.975Z,1.20
2018-01-03T12:58:42.317Z,1.50
2018-01-03T13:01:10.426Z,1.90
2018-01-03T13:03:38.565Z,1.23
2018-01-03T13:06:06.685Z,1.30
2018-01-03T13:08:35.472Z,1.10
2018-01-03T13:11:03.665Z,0.77
2018-01-03T13:13:32.781Z,1.10
2018-01-03T13:16:00.917Z,1.20
2018-01-03T13:18:30.267Z,0.83
2018-01-03T13:20:59.161Z,0.70
2018-01-03T13:23:27.301Z,1.00
2018-01-03T13:25:55.613Z,1.20
2018-01-03T13:28:23.764Z,0.80
2018-01-03T13:30:51.912Z,0.80
2018-01-03T13:33:20.063Z,0.60
2018-01-03T13:35:50.301Z,2.40
2018-01-03T13:38:20.073Z,0.70
2018-01-03T13:40:48.227Z,0.80
2018-01-03T13:43:16.681Z,0.57
2018-01-03T13:45:45.925Z,0.70
2018-01-03T13:48:14.097Z,0.70
2018-01-03T13:50:42.228Z,0.80
2018-01-03T13:53:11.097Z,0.70
2018-01-03T13:55:39.267Z,0.77
2018-01-03T13:58:08.158Z,0.70
2018-01-03T14:00:36.473Z,0.63
2018-01-03T14:03:05.011Z,0.60
2018-01-03T14:05:33.129Z,0.40
2018-01-03T14:08:01.986Z,0.70
2018-01-03T14:10:30.180Z,0.50
2018-01-03T14:12:58.301Z,0.70
2018-01-03T14:15:26.449Z,0.70
2018-01-03T14:17:54.829Z,0.80
2018-01-03T14:20:23.081Z,0.80
2018-01-03T14:22:53.048Z,0.60
2018-01-03T14:25:21.500Z,0.50
2018-01-03T14:27:49.992Z,0.70
2018-01-03T14:30:18.197Z,0.70
2018-01-03T14:32:46.778Z,0.93
2018-01-03T14:35:14.892Z,0.60
2018-01-03T14:37:44.321Z,0.40
2018-01-03T14:40:12.492Z,0.83
2018-01-03T14:42:40.905Z,0.83
2018-01-03T14:45:09.052Z,1.13
2018-01-03T14:47:38.160Z,0.90
2018-01-03T14:50:06.296Z,3.30
2018-01-03T14:52:35.642Z,1.07
2018-01-03T14:55:03.797Z,1.33
2018-01-03T14:57:34.811Z,1.00
2018-01-03T15:00:03.981Z,2.00
2018-01-03T15:02:32.126Z,1.37
2018-01-03T15:05:00.727Z,1.60
2018-01-03T15:07:28.969Z,1.33
2018-01-03T15:09:57.116Z,2.17
2018-01-03T15:12:26.376Z,1.20
2018-01-03T15:14:54.656Z,1.43
2018-01-03T15:17:22.809Z,1.20
2018-01-03T15:19:50.941Z,1.37
2018-01-03T15:22:20.269Z,2.67
2018-01-03T15:24:48.770Z,1.33
2018-01-03T15:27:16.941Z,2.77
2018-01-03T15:29:45.193Z,2.57
2018-01-03T15:32:13.490Z,0.93
2018-01-03T15:34:41.681Z,0.77
2018-01-03T15:37:09.839Z,1.00
2018-01-03T15:39:38.276Z,0.87
2018-01-03T15:42:06.433Z,2.10
2018-01-03T15:44:34.573Z,2.97
2018-01-03T15:47:02.711Z,3.10
2018-01-03T15:49:31.586Z,1.60
2018-01-03T15:51:59.725Z,1.87
2018-01-03T15:54:27.856Z,0.60
2018-01-03T15:56:55.973Z,2.53
2018-01-03T15:59:24.115Z,2.20
2018-01-03T16:01:52.273Z,1.73
2018-01-03T16:04:20.686Z,0.60
2018-01-03T16:06:49.049Z,1.00
2018-01-03T16:09:17.240Z,0.97
2018-01-03T16:11:45.396Z,1.60
2018-01-03T16:14:13.528Z,1.87
2018-01-03T16:16:41.701Z,0.93
2018-01-03T16:19:09.832Z,4.17
2018-01-03T16:21:38.409Z,1.23
2018-01-03T16:24:07.859Z,2.00
2018-01-03T16:26:36.129Z,2.10
2018-01-03T16:29:04.873Z,1.40
2018-01-03T16:31:33.245Z,1.57
2018-01-03T16:34:01.373Z,2.70
2018-01-03T16:36:29.749Z,1.20
2018-01-03T16:38:58.269Z,2.03
2018-01-03T16:41:26.447Z,2.00
2018-01-03T16:43:54.754Z,1.33
2018-01-03T16:46:23.108Z,3.73
2018-01-03T16:48:51.310Z,7.20
2018-01-03T16:51:19.711Z,1.97
2018-01-03T16:53:47.832Z,4.43
2018-01-03T16:56:17.072Z,2.37
2018-01-03T16:58:45.198Z,1.70
2018-01-03T17:01:14.237Z,3.03
2018-01-03T17:03:42.817Z,3.23
2018-01-03T17:06:11.008Z,2.90
2018-01-03T17:08:39.172Z,1.83
2018-01-03T17:11:07.417Z,2.07
2018-01-03T17:13:36.604Z,1.50
2018-01-03T17:16:04.772Z,2.10
2018-01-03T17:18:33.687Z,1.83
2018-01-03T17:21:01.844Z,3.13
2018-01-03T17:23:31.216Z,1.57
2018-01-03T17:25:59.440Z,2.20
2018-01-03T17:28:27.611Z,2.20
2018-01-03T17:30:55.718Z,2.43
2018-01-03T17:33:23.837Z,2.30
2018-01-03T17:35:52.718Z,2.60
2018-01-03T17:38:21.374Z,3.27
2018-01-03T17:40:50.037Z,2.07
2018-01-03T17:43:18.208Z,1.83
2018-01-03T17:45:46.384Z,2.03
2018-01-03T17:48:14.869Z,2.03
2018-01-03T17:50:43.431Z,2.40
2018-01-03T17:53:11.891Z,2.00
2018-01-03T17:55:41.296Z,2.90
2018-01-03T17:58:10.180Z,2.80
2018-01-03T18:00:38.474Z,2.20
2018-01-03T18:03:06.620Z,2.60
2018-01-03T18:05:34.805Z,2.80
2018-01-03T18:08:04.159Z,2.43
2018-01-03T18:10:32.288Z,2.17
2018-01-03T18:13:01.584Z,2.40
2018-01-03T18:15:29.757Z,2.37
2018-01-03T18:17:59.498Z,2.70
2018-01-03T18:20:27.668Z,1.47
2018-01-03T18:22:55.816Z,1.77
2018-01-03T18:25:23.982Z,4.73
2018-01-03T18:27:52.851Z,1.77
2018-01-03T18:30:21.005Z,1.90
2018-01-03T18:32:49.561Z,1.93
2018-01-03T18:35:18.669Z,1.70
2018-01-03T18:37:48.150Z,1.80
2018-01-03T18:40:17.021Z,2.57
2018-01-03T18:42:45.144Z,2.07
2018-01-03T18:45:13.288Z,2.77
2018-01-03T18:47:42.153Z,1.70
2018-01-03T18:50:10.457Z,2.00
2018-01-03T18:52:38.613Z,2.43
2018-01-03T18:55:07.321Z,1.33
2018-01-03T18:57:36.237Z,1.60
2018-01-03T19:00:05.043Z,2.53
2018-01-03T19:02:33.166Z,2.00
2018-01-03T19:05:01.298Z,2.10
2018-01-03T19:07:29.437Z,1.93
2018-01-03T19:09:57.573Z,2.33
2018-01-03T19:12:25.713Z,2.83
2018-01-03T19:14:53.889Z,2.70
2018-01-03T19:17:22.029Z,2.40
2018-01-03T19:19:50.604Z,2.33
2018-01-03T19:22:18.767Z,2.60
2018-01-03T19:24:47.625Z,2.63
2018-01-03T19:27:15.773Z,1.70
2018-01-03T19:29:43.920Z,2.20
2018-01-03T19:32:12.073Z,2.33
2018-01-03T19:34:40.273Z,3.30
2018-01-03T19:37:08.480Z,2.10
2018-01-03T19:39:36.654Z,2.70
2018-01-03T19:42:04.852Z,3.27
2018-01-03T19:44:33.939Z,2.93
2018-01-03T19:47:02.208Z,2.37
2018-01-03T19:49:30.354Z,2.40
2018-01-03T19:51:59.472Z,2.70
2018-01-03T19:54:27.646Z,3.60
2018-01-03T19:56:55.773Z,2.37
2018-01-03T19:59:24.645Z,2.43
2018-01-03T20:01:52.775Z,3.00
2018-01-03T20:04:21.120Z,2.60
2018-01-03T20:06:50.497Z,4.40
2018-01-03T20:09:19.221Z,4.47
2018-01-03T20:11:47.342Z,2.17
2018-01-03T20:14:15.485Z,2.37
2018-01-03T20:16:44.248Z,3.20
2018-01-03T20:19:12.400Z,2.43
2018-01-03T20:21:40.613Z,2.47
2018-01-03T20:24:08.737Z,3.57
2018-01-03T20:26:37.493Z,3.63
2018-01-03T20:29:05.628Z,3.10
2018-01-03T20:31:34.973Z,3.10
2018-01-03T20:34:03.263Z,2.70
2018-01-03T20:36:31.412Z,2.40
2018-01-03T20:38:59.589Z,2.40
2018-01-03T20:41:27.733Z,2.50
2018-01-03T20:43:56.606Z,3.13
2018-01-03T20:46:24.751Z,3.20
2018-01-03T20:48:52.885Z,3.03
2018-01-03T20:51:21.021Z,2.07
2018-01-03T20:53:49.569Z,2.30
2018-01-03T20:56:17.979Z,3.27
2018-01-03T20:58:46.113Z,3.30
2018-01-03T21:01:14.289Z,2.43
2018-01-03T21:03:42.460Z,3.10
2018-01-03T21:06:10.865Z,2.63
2018-01-03T21:08:39.326Z,2.83
2018-01-03T21:11:08.254Z,2.00
2018-01-03T21:13:36.416Z,1.80
2018-01-03T21:16:04.613Z,2.63
2018-01-03T21:18:32.780Z,1.87
2018-01-03T21:21:01.677Z,2.03
2018-01-03T21:23:29.814Z,1.80
2018-01-03T21:25:58.122Z,2.30
2018-01-03T21:28:26.355Z,3.30
2018-01-03T21:30:54.480Z,2.40
2018-01-03T21:33:22.889Z,2.60
2018-01-03T21:35:52.286Z,2.10
2018-01-03T21:38:21.435Z,1.50
2018-01-03T21:40:49.571Z,2.30
2018-01-03T21:43:17.957Z,2.60
2018-01-03T21:45:46.117Z,2.80
2018-01-03T21:48:15.313Z,2.30
2018-01-03T21:50:44.532Z,2.80
2018-01-03T21:53:12.720Z,2.57
2018-01-03T21:55:40.896Z,2.93
2018-01-03T21:58:09.032Z,2.50
2018-01-03T22:00:37.189Z,2.23
2018-01-03T22:03:05.862Z,1.77
2018-01-03T22:05:34.641Z,2.60
2018-01-03T22:08:02.772Z,2.60
2018-01-03T22:10:30.910Z,2.23
2018-01-03T22:12:59.769Z,2.07
2018-01-03T22:15:28.544Z,4.07
2018-01-03T22:17:57.420Z,2.07
2018-01-03T22:20:25.689Z,3.80
2018-01-03T22:22:54.577Z,2.30
2018-01-03T22:25:24.054Z,1.83
2018-01-03T22:27:52.181Z,2.90
2018-01-03T22:30:20.333Z,2.63
2018-01-03T22:32:48.468Z,2.77
2018-01-03T22:35:16.612Z,2.10
2018-01-03T22:37:45.660Z,3.23
2018-01-03T22:40:14.528Z,2.33
2018-01-03T22:42:42.685Z,1.83
2018-01-03T22:45:10.856Z,1.77
2018-01-03T22:47:39.049Z,1.97
2018-01-03T22:50:08.501Z,1.93
2018-01-03T22:52:36.734Z,1.67
2018-01-03T22:55:06.079Z,1.80
2018-01-03T22:57:34.312Z,2.13
2018-01-03T23:00:03.349Z,1.70
2018-01-03T23:02:31.789Z,2.50
2018-01-03T23:05:00.699Z,2.00
2018-01-03T23:07:29.741Z,2.20
2018-01-03T23:09:59.247Z,2.57
2018-01-03T23:12:27.660Z,2.23
2018-01-03T23:14:55.829Z,1.70
2018-01-03T23:17:24.309Z,2.03
2018-01-03T23:19:52.841Z,2.10
2018-01-03T23:22:21.113Z,2.47
2018-01-03T23:24:49.434Z,1.80
2018-01-03T23:27:17.593Z,2.10
2018-01-03T23:29:45.975Z,1.80
2018-01-03T23:32:14.256Z,2.43
2018-01-03T23:34:42.509Z,2.63
2018-01-03T23:37:11.129Z,1.70
2018-01-03T23:39:39.273Z,2.47
2018-01-03T23:42:07.889Z,2.13
2018-01-03T23:44:36.229Z,2.57
2018-01-03T23:47:05.406Z,2.60
2018-01-03T23:49:34.373Z,1.73
2018-01-03T23:52:02.745Z,2.13
2018-01-03T23:54:30.915Z,2.00
2018-01-03T23:56:59.792Z,1.90
2018-01-03T23:59:28.053Z,2.10
